Time;durP1;ratioP1;P1;durP2;ratioP2;P2;SDS_P1;SDS_P2;PMS_P1;PMS_P2;Temp;Humidity;BMP_temperature;BMP_pressure;BME280_temperature;BME280_humidity;BME280_pressure;Samples;Min_cycle;Max_cycle;Signal;HPM_P1;HPM_P2
2023/09/08 00:02:06;;;;;;;12.30;8.00;;;18.70;74.80;;;;;;4991906;28;20179;-74
2023/09/08 00:04:32;;;;;;;11.53;7.47;;;18.60;75.10;;;;;;4998195;28;20570;-74
2023/09/08 00:06:58;;;;;;;14.30;8.57;;;18.60;75.50;;;;;;4995791;28;20205;-73
2023/09/08 00:09:24;;;;;;;10.90;6.90;;;18.60;75.50;;;;;;4993788;28;20425;-74
2023/09/08 00:11:50;;;;;;;11.50;7.20;;;18.50;75.40;;;;;;4992285;28;20700;-73
2023/09/08 00:14:15;;;;;;;11.60;7.00;;;18.60;75.20;;;;;;4965193;28;20198;-74
2023/09/08 00:16:42;;;;;;;12.67;7.50;;;18.60;75.20;;;;;;4982620;28;20697;-74
2023/09/08 00:19:09;;;;;;;9.70;6.87;;;18.50;75.20;;;;;;4991794;28;20237;-74
2023/09/08 00:21:36;;;;;;;12.10;7.87;;;18.60;75.20;;;;;;4991587;28;20422;-73
2023/09/08 00:24:01;;;;;;;10.50;7.10;;;18.60;75.10;;;;;;4987264;28;21001;-71
2023/09/08 00:26:27;;;;;;;11.40;7.10;;;18.70;74.60;;;;;;4985096;28;20570;-73
2023/09/08 00:28:52;;;;;;;9.03;6.60;;;18.70;74.50;;;;;;4972090;28;20228;-73
2023/09/08 00:31:18;;;;;;;11.77;7.00;;;18.60;74.50;;;;;;4972979;28;20201;-72
2023/09/08 00:33:44;;;;;;;9.10;6.60;;;18.50;74.50;;;;;;4987016;28;20239;-73
2023/09/08 00:36:10;;;;;;;12.17;6.57;;;18.50;74.60;;;;;;4986566;28;20705;-74
2023/09/08 00:38:35;;;;;;;12.13;7.27;;;18.50;74.30;;;;;;4993487;28;20221;-73
2023/09/08 00:41:01;;;;;;;11.97;6.77;;;18.50;74.30;;;;;;4994203;28;20858;-72
2023/09/08 00:43:27;;;;;;;9.80;6.73;;;18.50;74.30;;;;;;4993627;28;20950;-73
2023/09/08 00:45:54;;;;;;;15.80;7.57;;;18.50;74.50;;;;;;4992921;28;20302;-73
2023/09/08 00:48:20;;;;;;;10.67;7.10;;;18.40;74.60;;;;;;4988084;28;20219;-73
2023/09/08 00:50:46;;;;;;;9.50;6.80;;;18.50;74.60;;;;;;4994626;28;20421;-73
2023/09/08 00:53:12;;;;;;;14.33;7.70;;;18.40;74.80;;;;;;4993243;28;20514;-73
2023/09/08 00:55:40;;;;;;;12.77;7.00;;;18.50;74.60;;;;;;4989397;28;20466;-75
2023/09/08 00:58:05;;;;;;;9.63;6.77;;;18.50;74.80;;;;;;4988262;28;20857;-73
2023/09/08 01:00:32;;;;;;;10.10;6.60;;;18.40;74.90;;;;;;4990485;28;20433;-73
2023/09/08 01:02:58;;;;;;;10.53;7.23;;;18.40;74.90;;;;;;4987637;28;20198;-73
2023/09/08 01:05:24;;;;;;;13.77;7.17;;;18.30;75.10;;;;;;4990577;28;20467;-73
2023/09/08 01:07:50;;;;;;;11.70;7.77;;;18.30;75.20;;;;;;4983005;28;20211;-73
2023/09/08 01:10:16;;;;;;;7.77;6.43;;;18.30;75.40;;;;;;4983623;28;20431;-74
2023/09/08 01:12:42;;;;;;;13.53;7.10;;;18.20;75.50;;;;;;4991739;28;20430;-73
2023/09/08 01:15:08;;;;;;;11.50;7.03;;;18.20;75.80;;;;;;4988429;28;20396;-73
2023/09/08 01:17:34;;;;;;;13.90;7.43;;;18.20;75.80;;;;;;4981612;28;20220;-73
2023/09/08 01:20:22;;;;;;;13.73;6.90;;;18.20;75.80;;;;;;4994451;28;20429;-73
2023/09/08 01:23:16;;;;;;;13.90;8.33;;;18.30;75.70;;;;;;4993647;28;20668;-73
2023/09/08 01:25:57;;;;;;;12.43;7.10;;;18.20;75.90;;;;;;4969755;28;20461;-73
2023/09/08 01:28:23;;;;;;;12.63;7.83;;;18.20;76.10;;;;;;4969261;28;20439;-73
2023/09/08 01:30:50;;;;;;;12.07;8.23;;;18.10;76.10;;;;;;4992500;28;20416;-73
2023/09/08 01:33:16;;;;;;;13.27;7.87;;;18.10;76.10;;;;;;4991233;28;20444;-73
2023/09/08 01:35:43;;;;;;;11.17;7.20;;;18.00;76.40;;;;;;4987197;28;20461;-74
2023/09/08 01:38:08;;;;;;;13.87;8.10;;;18.00;76.70;;;;;;4992798;28;20987;-73
2023/09/08 01:40:34;;;;;;;13.93;9.17;;;18.10;76.80;;;;;;4990403;28;20431;-73
2023/09/08 01:43:00;;;;;;;13.87;7.83;;;18.10;76.70;;;;;;4991814;28;20671;-73
2023/09/08 01:45:26;;;;;;;16.47;9.30;;;18.10;76.70;;;;;;4984671;28;20277;-74
2023/09/08 01:47:51;;;;;;;14.87;8.87;;;18.10;76.50;;;;;;4988894;28;20510;-74
2023/09/08 01:50:21;;;;;;;12.50;6.97;;;17.90;76.80;;;;;;4992629;28;20187;-75
2023/09/08 01:52:47;;;;;;;11.30;7.70;;;17.90;77.30;;;;;;4984756;28;20191;-74
2023/09/08 01:55:12;;;;;;;13.67;8.30;;;17.90;77.10;;;;;;4987429;28;20468;-74
2023/09/08 01:57:38;;;;;;;12.87;8.00;;;17.90;77.00;;;;;;4990536;28;20221;-74
2023/09/08 02:00:05;;;;;;;11.43;8.00;;;17.80;77.40;;;;;;4992993;28;20187;-73
2023/09/08 02:02:30;;;;;;;12.90;8.27;;;17.80;77.40;;;;;;4989349;28;20192;-74
2023/09/08 02:04:56;;;;;;;12.67;8.23;;;17.80;77.30;;;;;;4993011;28;21077;-74
2023/09/08 02:07:22;;;;;;;13.73;7.50;;;17.70;77.40;;;;;;4994860;28;20189;-73
2023/09/08 02:09:47;;;;;;;13.30;7.83;;;17.70;77.70;;;;;;4987137;28;20677;-73
2023/09/08 02:12:13;;;;;;;13.87;8.00;;;17.80;77.60;;;;;;4992782;28;20196;-74
2023/09/08 02:14:39;;;;;;;9.27;7.60;;;17.80;77.40;;;;;;4988559;28;20729;-74
2023/09/08 02:17:06;;;;;;;11.47;7.20;;;17.70;77.30;;;;;;4985625;28;20200;-73
2023/09/08 02:19:31;;;;;;;12.03;8.00;;;17.70;77.40;;;;;;4985398;28;20712;-73
2023/09/08 02:21:57;;;;;;;13.23;7.77;;;17.80;77.60;;;;;;4992119;28;20433;-74
2023/09/08 02:24:22;;;;;;;15.20;8.30;;;17.80;77.60;;;;;;4989729;28;20174;-73
2023/09/08 02:26:48;;;;;;;12.23;8.00;;;17.70;77.80;;;;;;4988024;28;20218;-75
2023/09/08 02:29:13;;;;;;;14.57;8.43;;;17.60;78.10;;;;;;4985977;28;20202;-74
2023/09/08 02:31:39;;;;;;;16.17;8.57;;;17.50;78.40;;;;;;4991657;28;20192;-74
2023/09/08 02:34:05;;;;;;;14.17;8.03;;;17.40;78.60;;;;;;4991493;28;20190;-73
2023/09/08 02:36:30;;;;;;;12.70;8.00;;;17.40;79.00;;;;;;4989726;28;20210;-73
2023/09/08 02:38:56;;;;;;;14.43;8.90;;;17.30;78.70;;;;;;4994900;28;20222;-74
2023/09/08 02:41:23;;;;;;;14.20;8.70;;;17.30;79.00;;;;;;4992856;28;20685;-73
2023/09/08 02:43:49;;;;;;;10.70;6.87;;;17.30;79.00;;;;;;4989093;28;20435;-74
2023/09/08 02:46:14;;;;;;;12.57;7.87;;;17.30;79.00;;;;;;4985655;28;20553;-73
2023/09/08 02:48:40;;;;;;;14.67;8.30;;;17.20;79.00;;;;;;4986401;28;20941;-74
2023/09/08 02:51:06;;;;;;;13.80;7.80;;;17.20;79.30;;;;;;4991355;28;20241;-74
2023/09/08 02:53:32;;;;;;;13.57;8.27;;;17.30;79.00;;;;;;4986724;28;20438;-74
2023/09/08 02:55:58;;;;;;;12.77;8.20;;;17.30;78.70;;;;;;4982849;28;20220;-74
2023/09/08 02:58:25;;;;;;;13.67;9.40;;;17.20;79.00;;;;;;4987974;28;20737;-76
2023/09/08 03:00:52;;;;;;;9.33;7.60;;;17.10;79.30;;;;;;4989919;28;20480;-73
2023/09/08 03:03:18;;;;;;;15.67;8.10;;;17.10;79.70;;;;;;4985207;28;20434;-74
2023/09/08 03:05:44;;;;;;;14.10;8.23;;;17.10;79.50;;;;;;4985367;28;20471;-73
2023/09/08 03:08:10;;;;;;;12.27;8.60;;;17.10;79.30;;;;;;4989134;28;20429;-73
2023/09/08 03:10:35;;;;;;;14.00;8.87;;;17.10;79.50;;;;;;4989214;28;20276;-73
2023/09/08 03:13:01;;;;;;;11.57;7.97;;;17.00;79.60;;;;;;4986022;28;20657;-73
2023/09/08 03:15:28;;;;;;;11.80;7.60;;;16.90;79.90;;;;;;4984107;28;20359;-74
2023/09/08 03:18:01;;;;;;;12.03;7.70;;;16.90;80.20;;;;;;4990562;28;20317;-74
2023/09/08 03:20:28;;;;;;;13.67;8.17;;;17.00;80.20;;;;;;4990424;28;20446;-73
2023/09/08 03:22:54;;;;;;;13.37;8.07;;;17.00;80.00;;;;;;4989230;28;20879;-73
2023/09/08 03:25:19;;;;;;;13.33;7.53;;;17.00;79.70;;;;;;4967665;28;20548;-73
2023/09/08 03:27:45;;;;;;;11.07;7.23;;;17.00;79.90;;;;;;4984629;28;20276;-74
2023/09/08 03:30:11;;;;;;;12.47;7.40;;;17.00;79.70;;;;;;4986443;28;20210;-73
2023/09/08 03:32:37;;;;;;;14.13;8.90;;;17.00;79.60;;;;;;4990187;28;20208;-72
2023/09/08 03:35:06;;;;;;;10.67;7.47;;;17.00;79.60;;;;;;4988782;28;20869;-74
2023/09/08 03:37:31;;;;;;;10.90;7.90;;;17.00;79.70;;;;;;4985608;28;20585;-74
2023/09/08 03:39:57;;;;;;;13.63;8.77;;;17.00;79.60;;;;;;4988063;28;21297;-74
2023/09/08 03:42:23;;;;;;;13.80;7.70;;;17.00;79.60;;;;;;4982387;28;20241;-73
2023/09/08 03:44:48;;;;;;;11.73;7.97;;;17.00;79.70;;;;;;4969852;28;20216;-73
2023/09/08 03:47:14;;;;;;;12.47;8.27;;;17.00;79.60;;;;;;4982255;28;20179;-73
2023/09/08 03:49:39;;;;;;;12.63;8.30;;;17.00;79.70;;;;;;4988774;28;20187;-73
2023/09/08 03:52:05;;;;;;;13.70;8.10;;;16.90;79.60;;;;;;4972014;28;20211;-73
2023/09/08 03:54:31;;;;;;;12.30;8.20;;;16.90;79.70;;;;;;4988904;28;20179;-73
2023/09/08 03:56:56;;;;;;;12.77;8.00;;;16.90;79.70;;;;;;4977320;28;20195;-75
2023/09/08 03:59:22;;;;;;;12.00;8.83;;;16.90;79.60;;;;;;4987183;28;20195;-73
2023/09/08 04:01:47;;;;;;;14.80;7.60;;;16.90;79.70;;;;;;4977386;28;20311;-72
2023/09/08 04:04:13;;;;;;;14.10;8.40;;;16.90;79.70;;;;;;4990730;28;20195;-74
2023/09/08 04:06:39;;;;;;;13.43;7.97;;;16.90;79.60;;;;;;4984725;28;20239;-73
2023/09/08 04:09:04;;;;;;;13.03;8.53;;;16.90;79.70;;;;;;4990831;28;20191;-74
2023/09/08 04:11:30;;;;;;;13.17;7.87;;;16.90;79.60;;;;;;4988153;28;20187;-75
2023/09/08 04:13:56;;;;;;;13.27;7.77;;;17.00;79.20;;;;;;4988158;28;20197;-73
2023/09/08 04:16:21;;;;;;;15.33;9.00;;;17.00;78.90;;;;;;4985455;28;20478;-74
2023/09/08 04:18:47;;;;;;;15.90;8.00;;;17.00;79.00;;;;;;4987337;28;20240;-73
2023/09/08 04:21:13;;;;;;;13.50;7.97;;;17.00;79.20;;;;;;4994947;23;20242;-74
2023/09/08 04:23:39;;;;;;;12.50;8.00;;;17.00;79.20;;;;;;4990237;28;20444;-73
2023/09/08 04:26:05;;;;;;;13.50;7.70;;;17.00;79.20;;;;;;4966631;28;20218;-72
2023/09/08 04:28:30;;;;;;;15.83;9.03;;;17.00;79.30;;;;;;4988659;28;20199;-72
2023/09/08 04:30:56;;;;;;;12.17;7.83;;;17.00;79.30;;;;;;4986827;28;20190;-72
2023/09/08 04:33:23;;;;;;;13.70;8.67;;;16.90;79.30;;;;;;4987679;28;20191;-74
2023/09/08 04:35:49;;;;;;;13.63;8.70;;;16.90;79.30;;;;;;4981523;28;20480;-71
2023/09/08 04:38:14;;;;;;;13.50;8.90;;;16.90;79.00;;;;;;4993340;28;20481;-72
2023/09/08 04:40:41;;;;;;;13.90;8.80;;;16.80;79.30;;;;;;4987146;28;20278;-72
2023/09/08 04:43:07;;;;;;;12.30;7.93;;;16.80;79.70;;;;;;4992595;28;20245;-71
2023/09/08 04:45:32;;;;;;;15.17;8.83;;;16.90;79.70;;;;;;4988061;28;20464;-73
2023/09/08 04:47:58;;;;;;;15.23;8.83;;;16.90;79.70;;;;;;4987862;28;20222;-73
2023/09/08 04:50:23;;;;;;;15.03;8.23;;;16.90;79.70;;;;;;4989329;28;20206;-73
2023/09/08 04:52:49;;;;;;;14.80;8.67;;;16.90;79.50;;;;;;4983987;28;20190;-73
2023/09/08 04:55:15;;;;;;;14.27;7.80;;;17.00;79.50;;;;;;4990312;28;20211;-72
2023/09/08 04:57:40;;;;;;;13.50;8.27;;;17.00;79.30;;;;;;4989657;28;20786;-71
2023/09/08 05:00:06;;;;;;;14.70;8.80;;;16.90;79.30;;;;;;4992030;28;20182;-73
2023/09/08 05:02:32;;;;;;;13.77;8.03;;;16.90;79.50;;;;;;4988623;28;20198;-76
2023/09/08 05:04:59;;;;;;;14.30;8.40;;;16.80;79.70;;;;;;4989290;28;21599;-74
2023/09/08 05:07:25;;;;;;;16.70;9.43;;;16.90;79.70;;;;;;4990452;28;20232;-72
2023/09/08 05:09:51;;;;;;;18.23;9.10;;;17.00;79.30;;;;;;4991239;28;20471;-73
2023/09/08 05:12:16;;;;;;;15.53;8.20;;;16.90;79.20;;;;;;4984331;28;20183;-72
2023/09/08 05:14:42;;;;;;;13.60;8.70;;;16.90;79.50;;;;;;4986811;28;20190;-70
2023/09/08 05:17:07;;;;;;;17.50;8.20;;;16.90;79.00;;;;;;4993060;28;20190;-72
2023/09/08 05:19:33;;;;;;;15.30;9.07;;;16.90;79.00;;;;;;4990117;28;20984;-72
2023/09/08 05:21:59;;;;;;;13.73;9.00;;;16.80;79.20;;;;;;4992321;28;20205;-71
2023/09/08 05:24:26;;;;;;;15.73;8.67;;;16.80;79.60;;;;;;4986410;28;20193;-71
2023/09/08 05:26:52;;;;;;;16.47;8.90;;;16.80;79.70;;;;;;4991169;28;20193;-72
2023/09/08 05:29:17;;;;;;;15.27;10.00;;;16.80;79.90;;;;;;4989836;28;20432;-71
2023/09/08 05:31:43;;;;;;;13.40;8.90;;;16.70;80.00;;;;;;4989281;28;20650;-71
2023/09/08 05:34:09;;;;;;;15.23;8.50;;;16.70;80.30;;;;;;4987728;28;20194;-71
2023/09/08 05:36:37;;;;;;;14.87;8.93;;;16.70;80.30;;;;;;4987313;28;20217;-73
2023/09/08 05:39:03;;;;;;;13.83;8.70;;;16.80;80.50;;;;;;4986512;28;20230;-72
2023/09/08 05:41:29;;;;;;;13.13;8.60;;;16.80;80.50;;;;;;4990168;28;20450;-72
2023/09/08 05:43:54;;;;;;;13.33;8.70;;;16.90;80.50;;;;;;4995255;28;20540;-72
2023/09/08 05:46:20;;;;;;;14.90;9.40;;;17.00;80.00;;;;;;4993914;28;20249;-72
2023/09/08 05:48:47;;;;;;;13.50;8.80;;;17.00;79.60;;;;;;4997279;28;20210;-71
2023/09/08 05:51:13;;;;;;;14.33;8.80;;;17.10;79.30;;;;;;4999295;28;20209;-70
2023/09/08 05:53:40;;;;;;;15.50;9.00;;;17.10;78.70;;;;;;4996289;28;20442;-72
2023/09/08 05:56:06;;;;;;;14.30;8.70;;;17.00;78.90;;;;;;4998142;28;20484;-72
2023/09/08 05:58:32;;;;;;;16.20;9.50;;;17.00;79.00;;;;;;4990506;28;20691;-68
2023/09/08 06:00:57;;;;;;;15.53;9.67;;;17.00;79.30;;;;;;4991999;28;21167;-72
2023/09/08 06:03:23;;;;;;;15.93;9.77;;;16.90;79.50;;;;;;4989279;28;20199;-72
2023/09/08 06:05:48;;;;;;;15.50;9.80;;;16.90;79.60;;;;;;4985920;28;20229;-73
2023/09/08 06:08:14;;;;;;;18.43;9.83;;;16.90;79.70;;;;;;4991133;28;20186;-71
2023/09/08 06:10:40;;;;;;;17.70;10.80;;;16.90;79.90;;;;;;4987411;28;20266;-71
2023/09/08 06:13:05;;;;;;;13.93;9.30;;;17.00;80.20;;;;;;4987952;28;20208;-72
2023/09/08 06:15:31;;;;;;;17.93;10.60;;;17.30;80.20;;;;;;4991201;28;20198;-72
2023/09/08 06:17:56;;;;;;;16.23;9.90;;;17.60;78.60;;;;;;4993865;28;20268;-73
2023/09/08 06:20:22;;;;;;;18.63;10.23;;;17.70;77.60;;;;;;4992527;28;20187;-71
2023/09/08 06:22:49;;;;;;;19.60;11.77;;;17.80;77.40;;;;;;4990948;28;20198;-71
2023/09/08 06:25:14;;;;;;;16.70;9.97;;;17.70;77.30;;;;;;4989312;28;20230;-72
2023/09/08 06:27:40;;;;;;;19.73;10.97;;;17.70;77.40;;;;;;4988976;28;20484;-71
2023/09/08 06:30:06;;;;;;;17.67;10.47;;;17.70;77.60;;;;;;4986980;28;20298;-71
2023/09/08 06:32:32;;;;;;;19.43;10.73;;;17.70;77.70;;;;;;4982410;28;21005;-70
2023/09/08 06:34:58;;;;;;;18.70;11.40;;;17.70;77.80;;;;;;4986814;28;20465;-71
2023/09/08 06:37:24;;;;;;;19.70;11.43;;;17.60;78.00;;;;;;4992067;28;20515;-70
2023/09/08 06:39:49;;;;;;;17.77;11.00;;;17.60;78.10;;;;;;4989585;28;20434;-72
2023/09/08 06:42:15;;;;;;;19.63;10.50;;;17.70;78.30;;;;;;4987240;28;20567;-70
2023/09/08 06:44:40;;;;;;;16.80;10.83;;;17.80;78.10;;;;;;4982804;28;20618;-71
2023/09/08 06:47:09;;;;;;;17.23;10.50;;;17.80;77.80;;;;;;4993222;28;20183;-71
2023/09/08 06:49:34;;;;;;;17.30;10.90;;;17.90;77.80;;;;;;4983652;28;20191;-71
2023/09/08 06:52:00;;;;;;;19.47;11.20;;;17.90;77.80;;;;;;4988961;28;20430;-72
2023/09/08 06:54:25;;;;;;;17.50;10.70;;;17.90;77.70;;;;;;4985191;28;20711;-73
2023/09/08 06:56:51;;;;;;;21.20;11.33;;;18.00;77.60;;;;;;4988323;28;20183;-71
2023/09/08 06:59:17;;;;;;;19.43;11.30;;;18.10;77.40;;;;;;4985371;28;20270;-72
2023/09/08 07:01:42;;;;;;;18.80;10.43;;;18.10;77.30;;;;;;4989120;28;20677;-71
2023/09/08 07:04:08;;;;;;;18.17;11.17;;;18.10;77.40;;;;;;4986207;28;20193;-70
2023/09/08 07:06:35;;;;;;;19.07;11.10;;;18.20;77.40;;;;;;4985551;28;20208;-71
2023/09/08 07:09:01;;;;;;;15.10;9.67;;;18.20;77.40;;;;;;4990828;28;20186;-72
2023/09/08 07:11:27;;;;;;;17.50;10.17;;;18.30;77.30;;;;;;4991961;28;20785;-71
2023/09/08 07:13:52;;;;;;;19.33;11.93;;;18.40;77.10;;;;;;4997873;28;20429;-72
2023/09/08 07:16:18;;;;;;;21.43;11.27;;;18.50;76.50;;;;;;4998246;28;20235;-72
2023/09/08 07:18:43;;;;;;;16.87;10.50;;;18.50;76.40;;;;;;4999611;28;20222;-71
2023/09/08 07:21:09;;;;;;;16.50;9.67;;;18.50;76.40;;;;;;4991729;28;20221;-72
2023/09/08 07:23:36;;;;;;;19.93;11.87;;;18.60;76.40;;;;;;4997401;28;20252;-73
2023/09/08 07:26:02;;;;;;;24.13;12.33;;;18.70;76.10;;;;;;4992636;28;20308;-73
2023/09/08 07:28:28;;;;;;;20.30;12.07;;;18.70;75.90;;;;;;4990554;28;20466;-72
2023/09/08 07:30:53;;;;;;;18.40;10.70;;;18.80;75.90;;;;;;4990717;28;20187;-71
2023/09/08 07:33:19;;;;;;;19.00;11.00;;;18.80;75.70;;;;;;4990449;28;20195;-71
2023/09/08 07:35:44;;;;;;;16.90;9.73;;;18.90;75.50;;;;;;4988974;28;20591;-71
2023/09/08 07:38:10;;;;;;;17.73;10.53;;;19.00;75.40;;;;;;4989726;28;20214;-70
2023/09/08 07:40:36;;;;;;;22.63;11.97;;;19.10;75.10;;;;;;4994195;28;20249;-73
2023/09/08 07:43:05;;;;;;;16.60;11.20;;;19.20;74.90;;;;;;4990936;28;20257;-73
2023/09/08 07:45:30;;;;;;;20.83;12.03;;;19.30;74.90;;;;;;4998130;28;20207;-74
2023/09/08 07:47:56;;;;;;;16.23;9.73;;;19.30;74.90;;;;;;4994052;28;20442;-72
2023/09/08 07:50:23;;;;;;;15.80;9.73;;;19.40;75.10;;;;;;4985734;28;20188;-73
2023/09/08 07:52:51;;;;;;;20.13;11.10;;;19.50;74.80;;;;;;4991706;28;20211;-73
2023/09/08 07:55:17;;;;;;;21.87;10.50;;;19.70;74.60;;;;;;4984828;28;20464;-73
2023/09/08 07:57:45;;;;;;;13.80;10.57;;;19.70;74.30;;;;;;4988446;28;20505;-71
2023/09/08 08:00:12;;;;;;;20.20;11.20;;;19.80;74.20;;;;;;4990390;28;20956;-73
2023/09/08 08:02:48;;;;;;;21.60;11.70;;;19.90;73.70;;;;;;4991832;28;20924;-72
2023/09/08 08:05:15;;;;;;;24.77;11.37;;;20.00;73.90;;;;;;4981657;28;20825;-73
2023/09/08 08:07:42;;;;;;;18.50;9.87;;;20.10;73.90;;;;;;4991559;28;20869;-72
2023/09/08 08:10:08;;;;;;;14.07;10.10;;;20.20;73.60;;;;;;4990098;28;20446;-73
2023/09/08 08:12:34;;;;;;;16.73;10.13;;;20.30;73.30;;;;;;4993439;28;20446;-72
2023/09/08 08:15:00;;;;;;;18.40;10.87;;;20.40;72.70;;;;;;4975120;28;20467;-74
2023/09/08 08:17:27;;;;;;;16.93;10.07;;;20.60;72.60;;;;;;4993131;28;20490;-72
2023/09/08 08:19:53;;;;;;;15.70;9.80;;;20.70;72.40;;;;;;4976747;28;20193;-71
2023/09/08 08:22:19;;;;;;;15.87;9.50;;;20.80;72.40;;;;;;4998061;28;20468;-72
2023/09/08 08:24:45;;;;;;;16.10;10.20;;;20.90;71.80;;;;;;4997397;28;20460;-72
2023/09/08 08:27:10;;;;;;;17.63;10.30;;;20.90;71.70;;;;;;4992300;28;20181;-73
2023/09/08 08:29:36;;;;;;;14.10;9.23;;;20.90;72.10;;;;;;4994430;28;20190;-72
2023/09/08 08:32:02;;;;;;;14.17;9.93;;;21.00;72.10;;;;;;4990024;28;20217;-73
2023/09/08 08:34:28;;;;;;;19.20;10.43;;;21.20;71.80;;;;;;4995838;28;20189;-73
2023/09/08 08:36:54;;;;;;;16.93;10.33;;;21.30;71.60;;;;;;4990217;28;20543;-73
2023/09/08 08:39:19;;;;;;;21.80;11.00;;;21.30;71.30;;;;;;4992078;28;20294;-74
2023/09/08 08:41:45;;;;;;;19.30;10.90;;;21.40;71.30;;;;;;4991374;28;20429;-72
2023/09/08 08:44:10;;;;;;;20.37;12.57;;;21.50;71.00;;;;;;4989372;28;20209;-73
2023/09/08 08:46:37;;;;;;;16.10;10.03;;;21.60;71.00;;;;;;4990656;28;20222;-72
2023/09/08 08:49:04;;;;;;;18.40;9.90;;;21.70;70.50;;;;;;4992931;28;20199;-73
2023/09/08 08:51:30;;;;;;;18.43;11.70;;;21.80;70.40;;;;;;4987861;28;20430;-71
2023/09/08 08:53:57;;;;;;;19.90;10.90;;;21.90;70.40;;;;;;4994871;28;20784;-73
2023/09/08 08:56:23;;;;;;;14.10;10.03;;;22.10;69.80;;;;;;4992288;28;20525;-73
2023/09/08 08:58:50;;;;;;;15.63;9.67;;;22.20;69.50;;;;;;4984859;28;21198;-72
2023/09/08 09:01:18;;;;;;;18.63;11.03;;;22.30;69.10;;;;;;4996230;28;20443;-72
2023/09/08 09:03:48;;;;;;;17.70;11.77;;;22.30;68.80;;;;;;4997247;28;20424;-73
2023/09/08 09:06:15;;;;;;;14.97;9.80;;;22.40;68.90;;;;;;4992786;28;20462;-73
2023/09/08 09:08:43;;;;;;;17.90;11.77;;;22.40;68.80;;;;;;4991006;28;20482;-72
2023/09/08 09:11:10;;;;;;;18.83;10.63;;;22.50;68.80;;;;;;4987591;28;20427;-71
2023/09/08 09:13:35;;;;;;;21.73;10.57;;;22.70;68.50;;;;;;4989981;28;20464;-73
2023/09/08 09:16:03;;;;;;;16.00;10.40;;;22.80;68.00;;;;;;4987684;28;21070;-72
2023/09/08 09:18:30;;;;;;;16.90;10.47;;;22.90;67.60;;;;;;4990732;28;20834;-73
2023/09/08 09:20:58;;;;;;;15.60;11.20;;;23.00;67.60;;;;;;4985518;28;20440;-73
2023/09/08 09:23:34;;;;;;;15.67;11.33;;;23.10;67.00;;;;;;4990802;28;20445;-72
2023/09/08 09:26:03;;;;;;;18.83;11.40;;;23.20;66.90;;;;;;4994744;28;20995;-72
2023/09/08 09:28:29;;;;;;;20.27;10.70;;;23.30;66.40;;;;;;4996968;28;20506;-74
2023/09/08 09:30:55;;;;;;;14.97;9.90;;;23.30;66.30;;;;;;4991577;28;20494;-73
2023/09/08 09:33:22;;;;;;;19.63;12.90;;;23.40;66.40;;;;;;4991029;28;20432;-74
2023/09/08 09:35:50;;;;;;;18.40;11.10;;;23.50;66.00;;;;;;4987617;28;20574;-70
2023/09/08 09:38:19;;;;;;;14.00;9.53;;;23.60;65.60;;;;;;4992416;28;20577;-72
2023/09/08 09:40:46;;;;;;;14.87;10.03;;;23.70;65.30;;;;;;4990239;28;20816;-72
2023/09/08 09:43:13;;;;;;;18.90;10.20;;;23.90;64.80;;;;;;4988470;28;20452;-73
2023/09/08 09:45:40;;;;;;;22.60;10.53;;;23.90;64.50;;;;;;4990506;28;20459;-73
2023/09/08 09:48:07;;;;;;;15.33;10.80;;;24.00;64.50;;;;;;4992012;28;20511;-73
2023/09/08 09:50:41;;;;;;;15.10;9.30;;;24.10;64.10;;;;;;4989413;28;20419;-73
2023/09/08 09:53:11;;;;;;;13.37;9.23;;;24.30;63.90;;;;;;4984590;28;20534;-73
2023/09/08 09:55:38;;;;;;;15.57;9.63;;;24.40;63.70;;;;;;4989208;28;21101;-73
2023/09/08 09:58:04;;;;;;;14.67;9.97;;;24.50;63.40;;;;;;4988742;28;20473;-71
2023/09/08 10:00:33;;;;;;;17.13;10.50;;;24.60;62.90;;;;;;4988698;28;20426;-70
2023/09/08 10:02:58;;;;;;;13.67;9.03;;;24.50;62.90;;;;;;4986163;28;20914;-72
2023/09/08 10:05:25;;;;;;;19.37;12.77;;;24.60;63.10;;;;;;4986200;28;20539;-71
2023/09/08 10:07:51;;;;;;;15.20;9.80;;;24.70;62.90;;;;;;4986682;28;20298;-72
2023/09/08 10:10:17;;;;;;;12.90;9.20;;;24.80;62.30;;;;;;4987906;28;20816;-71
2023/09/08 10:12:52;;;;;;;13.20;9.80;;;24.90;61.90;;;;;;4991617;28;20442;-72
2023/09/08 10:15:21;;;;;;;17.33;9.90;;;24.90;61.70;;;;;;4988522;28;20858;-71
2023/09/08 10:17:52;;;;;;;26.13;10.40;;;25.00;61.60;;;;;;4990783;28;20471;-71
2023/09/08 10:20:21;;;;;;;14.60;10.13;;;25.10;61.60;;;;;;4985195;28;20452;-71
2023/09/08 10:22:48;;;;;;;13.10;9.07;;;25.10;61.20;;;;;;4997832;28;20468;-68
2023/09/08 10:25:16;;;;;;;13.73;9.50;;;25.20;61.50;;;;;;4998920;28;20536;-74
2023/09/08 10:27:42;;;;;;;13.73;8.73;;;25.30;61.20;;;;;;4994609;28;20477;-73
2023/09/08 10:30:08;;;;;;;12.73;8.60;;;25.30;61.30;;;;;;4985697;28;20429;-74
2023/09/08 10:32:36;;;;;;;10.40;8.70;;;25.40;60.90;;;;;;4994053;28;20422;-73
2023/09/08 10:35:04;;;;;;;13.37;8.40;;;25.50;60.70;;;;;;4986461;28;20543;-72
2023/09/08 10:37:29;;;;;;;13.63;10.10;;;25.50;60.30;;;;;;4989140;28;20487;-72
2023/09/08 10:40:15;;;;;;;14.63;9.37;;;25.70;59.90;;;;;;4991239;28;20431;-72
2023/09/08 10:42:41;;;;;;;11.63;9.27;;;25.70;60.10;;;;;;4988457;28;20224;-72
2023/09/08 10:45:17;;;;;;;14.27;9.30;;;25.90;60.30;;;;;;4992971;28;20473;-71
2023/09/08 10:47:46;;;;;;;14.50;8.50;;;26.30;60.30;;;;;;5001001;28;20480;-71
2023/09/08 10:50:19;;;;;;;13.73;10.20;;;26.80;60.10;;;;;;4993363;28;20445;-73
2023/09/08 10:53:11;;;;;;;12.20;9.90;;;27.10;59.20;;;;;;4992517;28;20954;-73
2023/09/08 10:55:57;;;;;;;11.80;8.80;;;27.60;58.90;;;;;;4991618;28;20519;-73
2023/09/08 10:58:42;;;;;;;12.17;8.17;;;27.20;58.70;;;;;;4989647;28;20617;-72
2023/09/08 11:01:27;;;;;;;12.17;8.43;;;27.50;57.70;;;;;;4992201;28;20934;-70
2023/09/08 11:03:53;;;;;;;16.00;9.70;;;28.00;57.80;;;;;;4985834;28;20579;-71
2023/09/08 11:06:22;;;;;;;11.03;8.07;;;28.10;57.30;;;;;;4982451;28;21021;-70
2023/09/08 11:08:48;;;;;;;14.90;9.50;;;28.30;57.30;;;;;;4995623;28;20422;-70
2023/09/08 11:11:16;;;;;;;11.53;8.17;;;28.80;56.40;;;;;;4993336;28;20417;-72
2023/09/08 11:13:42;;;;;;;13.17;8.53;;;28.70;56.20;;;;;;4996452;28;20425;-71
2023/09/08 11:16:08;;;;;;;10.23;8.20;;;29.20;55.70;;;;;;4997980;28;20461;-71
2023/09/08 11:18:35;;;;;;;12.20;8.37;;;29.80;54.90;;;;;;4993823;28;20225;-74
2023/09/08 11:21:03;;;;;;;12.90;8.63;;;30.40;54.00;;;;;;4988646;28;20470;-71
2023/09/08 11:23:29;;;;;;;19.10;9.70;;;30.50;52.80;;;;;;4974503;28;20438;-72
2023/09/08 11:25:55;;;;;;;11.43;9.13;;;30.00;53.70;;;;;;4984516;28;20542;-72
2023/09/08 11:28:24;;;;;;;10.63;8.80;;;30.20;53.80;;;;;;4993136;28;20501;-73
2023/09/08 11:30:50;;;;;;;13.73;8.60;;;30.40;52.80;;;;;;4958063;28;20249;-72
2023/09/08 11:33:16;;;;;;;14.70;11.00;;;29.60;54.20;;;;;;4990904;28;20418;-72
2023/09/08 11:35:44;;;;;;;11.23;9.30;;;29.30;55.00;;;;;;4986418;28;21100;-72
2023/09/08 11:38:11;;;;;;;10.80;7.70;;;29.50;55.00;;;;;;4980497;28;20485;-72
2023/09/08 11:40:37;;;;;;;11.53;8.90;;;29.80;54.60;;;;;;4987823;28;20445;-71
2023/09/08 11:43:04;;;;;;;10.97;8.13;;;30.20;53.60;;;;;;4993860;28;20460;-71
2023/09/08 11:45:35;;;;;;;16.67;9.30;;;30.40;53.60;;;;;;4972915;28;20459;-72
2023/09/08 11:48:01;;;;;;;13.40;9.17;;;29.90;54.00;;;;;;5000478;28;20477;-71
2023/09/08 11:50:27;;;;;;;12.37;9.10;;;29.40;55.00;;;;;;5000994;28;20453;-71
2023/09/08 11:52:54;;;;;;;11.77;9.00;;;29.80;54.50;;;;;;5004240;28;20190;-71
2023/09/08 11:55:21;;;;;;;11.17;8.10;;;29.50;55.20;;;;;;5000199;28;20211;-71
2023/09/08 11:57:57;;;;;;;11.93;8.63;;;29.80;54.80;;;;;;4998903;28;20488;-73
2023/09/08 12:00:23;;;;;;;12.70;10.10;;;30.30;53.80;;;;;;4998302;28;20805;-72
2023/09/08 12:02:50;;;;;;;19.30;10.83;;;30.30;53.70;;;;;;5001658;28;20459;-74
2023/09/08 12:05:22;;;;;;;16.50;10.03;;;29.40;55.20;;;;;;4996445;28;20846;-70
2023/09/08 12:07:50;;;;;;;14.90;10.30;;;29.50;55.60;;;;;;4997300;28;20430;-70
2023/09/08 12:10:17;;;;;;;14.13;11.20;;;29.70;54.60;;;;;;5000549;28;20972;-71
2023/09/08 12:12:54;;;;;;;12.83;9.50;;;28.80;56.40;;;;;;4997303;28;20491;-74
2023/09/08 12:15:35;;;;;;;14.07;10.57;;;29.20;55.80;;;;;;4993747;28;20523;-72
2023/09/08 12:18:36;;;;;;;13.13;10.60;;;28.50;56.60;;;;;;4995982;28;20464;-73
2023/09/08 12:21:05;;;;;;;17.73;10.30;;;28.00;57.80;;;;;;4986906;28;20795;-73
2023/09/08 12:23:31;;;;;;;15.77;11.17;;;28.30;57.30;;;;;;4997022;28;20948;-73
2023/09/08 12:25:57;;;;;;;14.33;10.37;;;28.60;56.50;;;;;;4997116;28;20474;-74
2023/09/08 12:28:29;;;;;;;12.23;9.63;;;28.70;56.10;;;;;;4978825;28;20203;-73
2023/09/08 12:30:55;;;;;;;13.90;9.90;;;28.70;56.40;;;;;;4993379;28;20651;-72
2023/09/08 12:33:21;;;;;;;10.87;9.33;;;28.90;55.80;;;;;;4992948;28;20479;-72